Sanbeimer, Louisiana
Current Conditions -  °F | °C
As of 12:53 PM on Tuesday 21 Oct 2014 (Local Time) from KTVR Reporting Station
Clear Clear  
Wind Chill: 76°   Ceiling: Unl
Heat Index: 76°   Visibility: 10mi
Dew Point: 56°   Wind: 3mph
Humidity: 50%   Direction: NA
Pressure: 30.08"   Gusts: NA
Location:  32.5752°N, 91.2825°W
Report Text: KTVR 211753Z AUTO VRB03KT 10SM CLR 24/13 A3008 RMK AO2 SLP191 T02440133 10244 20089 58014
Loading
Personal Weather Stations






























Interactive Weather Map
Tropical Storm Tracking
New forecast layout! Learn more

10-Day Weather Forecast

Advertisements
Track Severe Weather on mobile